Time;durP1;ratioP1;P1;durP2;ratioP2;P2;SDS_P1;SDS_P2;PMS_P1;PMS_P2;Temp;Humidity;BMP_temperature;BMP_pressure;BME280_temperature;BME280_humidity;BME280_pressure;Samples;Min_cycle;Max_cycle;Signal;HPM_P1;HPM_P2
2022/09/02 00:01:01;;;;;;;20.23;11.75;;;;;;;21.13;100.00;97235.00;5100831;28;20402;-81
2022/09/02 00:03:33;;;;;;;17.13;11.95;;;;;;;21.16;100.00;97231.94;5094722;27;20066;-81
2022/09/02 00:05:59;;;;;;;21.85;12.00;;;;;;;21.13;100.00;97224.13;5126179;27;20036;-80
2022/09/02 00:08:25;;;;;;;18.98;11.95;;;;;;;21.25;100.00;97239.09;5094537;28;20027;-81
2022/09/02 00:10:51;;;;;;;22.10;11.43;;;;;;;21.27;100.00;97235.16;5111690;28;20406;-80
2022/09/02 00:13:18;;;;;;;16.52;11.30;;;;;;;21.28;100.00;97238.75;5105968;28;20027;-81
2022/09/02 00:15:45;;;;;;;16.60;10.68;;;;;;;21.17;100.00;97234.47;5106058;28;20038;-80
2022/09/02 00:18:11;;;;;;;16.08;9.93;;;;;;;21.23;100.00;97230.22;5101804;28;20136;-80
2022/09/02 00:20:39;;;;;;;20.15;11.05;;;;;;;21.22;100.00;97228.53;5096837;28;20063;-80
2022/09/02 00:23:04;;;;;;;16.98;10.73;;;;;;;21.20;100.00;97225.97;5096757;28;20546;-80
2022/09/02 00:25:30;;;;;;;15.05;10.80;;;;;;;21.18;100.00;97216.28;5107801;28;20096;-81
2022/09/02 00:27:56;;;;;;;21.27;11.15;;;;;;;21.23;100.00;97222.06;5103961;28;20156;-81
2022/09/02 00:30:22;;;;;;;14.52;10.77;;;;;;;21.12;100.00;97214.25;5105914;28;20531;-82
2022/09/02 00:32:47;;;;;;;15.32;11.02;;;;;;;21.05;100.00;97219.47;5111335;28;20380;-81
2022/09/02 00:35:13;;;;;;;19.27;11.63;;;;;;;21.14;100.00;97217.63;5106084;28;20026;-80
2022/09/02 00:37:39;;;;;;;17.60;10.77;;;;;;;21.17;100.00;97225.47;5101096;28;20031;-81
2022/09/02 00:40:06;;;;;;;16.60;11.23;;;;;;;21.17;100.00;97225.47;5116029;28;20049;-81
2022/09/02 00:42:33;;;;;;;17.95;10.80;;;;;;;21.17;100.00;97225.47;5114148;28;20123;-81
2022/09/02 00:44:58;;;;;;;19.13;11.98;;;;;;;21.16;100.00;97223.78;5105856;28;20490;-81
2022/09/02 00:47:24;;;;;;;15.07;10.73;;;;;;;21.20;100.00;97225.13;5098241;28;20035;-81
2022/09/02 00:49:52;;;;;;;16.17;9.75;;;;;;;21.27;100.00;97226.16;5096589;27;20027;-81
2022/09/02 00:52:20;;;;;;;18.23;10.65;;;;;;;21.27;100.00;97220.72;5094362;28;20019;-81
2022/09/02 00:54:49;;;;;;;17.67;10.88;;;;;;;21.16;100.00;97207.47;5121967;28;20398;-81
2022/09/02 00:57:20;;;;;;;19.33;11.43;;;;;;;21.12;100.00;97222.41;5105371;28;20023;-81
2022/09/02 01:00:12;;;;;;;17.08;11.05;;;;;;;21.16;100.00;97226.50;5101008;28;20456;-81
2022/09/02 01:02:40;;;;;;;17.25;11.93;;;;;;;21.15;100.00;97222.91;5091220;28;20516;-81
2022/09/02 01:05:11;;;;;;;15.27;11.35;;;;;;;21.15;100.00;97222.06;5131232;28;20046;-80
2022/09/02 01:07:38;;;;;;;23.25;11.25;;;;;;;21.15;100.00;97216.63;5113745;28;20024;-81
2022/09/02 01:10:11;;;;;;;18.70;11.52;;;;;;;21.13;100.00;97205.94;5107765;28;20028;-81
2022/09/02 01:12:37;;;;;;;17.20;11.20;;;;;;;21.16;100.00;97212.91;5107785;28;20385;-81
2022/09/02 01:15:06;;;;;;;17.65;11.35;;;;;;;21.18;100.00;97210.84;5114019;27;20023;-81
2022/09/02 01:17:33;;;;;;;16.90;11.00;;;;;;;21.15;100.00;97201.16;5101047;28;20035;-83
2022/09/02 01:20:10;;;;;;;14.93;11.07;;;;;;;21.10;100.00;97199.97;5097285;28;20038;-81
2022/09/02 01:22:38;;;;;;;17.52;11.05;;;;;;;20.99;100.00;97206.53;5109465;28;20497;-81
2022/09/02 01:25:11;;;;;;;19.13;11.65;;;;;;;20.82;100.00;97202.97;5113993;27;20483;-81
2022/09/02 01:27:37;;;;;;;19.02;11.75;;;;;;;20.89;100.00;97228.44;5105221;28;20498;-80
2022/09/02 01:30:05;;;;;;;16.55;11.38;;;;;;;20.90;100.00;97221.16;5117292;27;20019;-81
2022/09/02 01:32:30;;;;;;;17.65;11.15;;;;;;;20.91;100.00;97217.41;5134544;27;20046;-81
2022/09/02 01:34:56;;;;;;;19.17;11.40;;;;;;;20.98;100.00;97229.31;5106203;28;20101;-82
2022/09/02 01:37:22;;;;;;;17.25;11.13;;;;;;;20.91;100.00;97220.13;5101314;28;20054;-82
2022/09/02 01:39:48;;;;;;;18.83;11.75;;;;;;;20.93;100.00;97231.69;5111006;27;20549;-82
2022/09/02 01:42:14;;;;;;;17.02;12.10;;;;;;;20.86;100.00;97233.38;5107445;27;20026;-82
2022/09/02 01:44:42;;;;;;;19.67;12.73;;;;;;;20.88;100.00;97228.63;5131961;27;20501;-81
2022/09/02 01:47:24;;;;;;;18.85;11.02;;;;;;;20.93;100.00;97224.38;5111374;27;20378;-82
2022/09/02 01:49:50;;;;;;;18.20;11.57;;;;;;;20.85;100.00;97210.78;5104524;28;20042;-81
2022/09/02 01:52:17;;;;;;;19.67;12.00;;;;;;;20.96;100.00;97218.59;5132349;27;20477;-82
2022/09/02 01:54:43;;;;;;;19.92;11.60;;;;;;;20.90;100.00;97213.84;5111761;28;20027;-83
2022/09/02 01:57:09;;;;;;;17.58;11.25;;;;;;;20.89;100.00;97206.69;5106522;27;20027;-82
2022/09/02 01:59:35;;;;;;;18.67;11.52;;;;;;;20.90;100.00;97210.25;5102464;27;20457;-82
2022/09/02 02:02:01;;;;;;;17.73;11.57;;;;;;;20.78;100.00;97208.88;5126962;27;20035;-82
2022/09/02 02:04:27;;;;;;;17.83;11.35;;;;;;;20.86;100.00;97212.47;5097459;28;20028;-82
2022/09/02 02:06:53;;;;;;;18.40;10.85;;;;;;;20.94;100.00;97203.47;5104703;27;20019;-82
2022/09/02 02:09:19;;;;;;;22.30;11.77;;;;;;;20.95;100.00;97207.88;5106732;27;20386;-81
2022/09/02 02:11:45;;;;;;;20.63;12.00;;;;;;;20.91;100.00;97207.41;5101768;28;20463;-81
2022/09/02 02:14:11;;;;;;;21.45;12.32;;;;;;;20.80;100.00;97191.38;5123020;27;20032;-82
2022/09/02 02:16:36;;;;;;;21.30;12.27;;;;;;;20.85;100.00;97201.78;5105654;28;20054;-82
2022/09/02 02:19:03;;;;;;;21.00;12.57;;;;;;;20.83;100.00;97207.38;5104354;27;20039;-80
2022/09/02 02:21:29;;;;;;;24.90;13.50;;;;;;;20.64;100.00;97207.66;5098021;28;20050;-82
2022/09/02 02:23:56;;;;;;;30.65;13.27;;;;;;;20.71;100.00;97214.13;5102243;27;20030;-81
2022/09/02 02:26:21;;;;;;;18.95;13.57;;;;;;;20.67;100.00;97217.38;5114529;27;20027;-81
2022/09/02 02:28:47;;;;;;;25.40;13.90;;;;;;;20.66;100.00;97221.94;5116040;27;20034;-81
2022/09/02 02:31:13;;;;;;;20.73;13.65;;;;;;;20.63;100.00;97215.97;5087474;28;20193;-82
2022/09/02 02:33:38;;;;;;;21.92;13.38;;;;;;;20.62;100.00;97209.69;5109164;27;20023;-81
2022/09/02 02:36:06;;;;;;;27.55;14.50;;;;;;;20.63;100.00;97208.69;5115669;27;20035;-81
2022/09/02 02:38:33;;;;;;;20.50;13.38;;;;;;;20.62;100.00;97208.84;5119372;27;20572;-81
2022/09/02 02:40:58;;;;;;;21.90;13.68;;;;;;;20.62;100.00;97212.41;5109962;27;20019;-81
2022/09/02 02:43:25;;;;;;;20.67;13.93;;;;;;;20.62;100.00;97209.69;5112782;27;20052;-81
2022/09/02 02:45:51;;;;;;;25.60;13.68;;;;;;;20.67;100.00;97217.38;5096662;28;20066;-81
2022/09/02 02:48:17;;;;;;;21.38;13.27;;;;;;;20.65;100.00;97201.22;5095321;28;20028;-81
2022/09/02 02:50:43;;;;;;;21.48;14.07;;;;;;;20.67;100.00;97201.91;5096099;28;20483;-82
2022/09/02 02:53:11;;;;;;;27.83;14.82;;;;;;;20.62;100.00;97198.81;5104193;27;20030;-82
2022/09/02 02:55:37;;;;;;;30.63;15.32;;;;;;;20.64;100.00;97196.78;5106557;27;20031;-82
2022/09/02 02:58:03;;;;;;;27.65;14.75;;;;;;;20.66;100.00;97200.19;5111415;27;20137;-86
2022/09/02 03:00:35;;;;;;;22.17;15.02;;;;;;;20.68;100.00;97198.16;5105791;27;20033;-86
2022/09/02 03:03:04;;;;;;;20.63;14.00;;;;;;;20.65;100.00;97186.75;5114437;27;20023;-85
2022/09/02 03:05:31;;;;;;;28.55;15.05;;;;;;;20.61;100.00;97194.38;5103965;28;20414;-84
2022/09/02 03:07:57;;;;;;;22.65;14.68;;;;;;;20.70;100.00;97190.69;5122152;27;20086;-86
2022/09/02 03:10:27;;;;;;;20.40;13.10;;;;;;;20.69;100.00;97191.72;5113290;28;20034;-86
2022/09/02 03:12:53;;;;;;;18.67;13.43;;;;;;;20.70;100.00;97182.53;5115174;27;20023;-86
2022/09/02 03:15:19;;;;;;;22.85;14.85;;;;;;;20.63;100.00;97188.81;5102625;28;20142;-86
2022/09/02 03:17:46;;;;;;;22.05;15.15;;;;;;;20.52;100.00;97184.50;5104693;27;20134;-85
2022/09/02 03:20:14;;;;;;;22.50;14.90;;;;;;;20.52;100.00;97208.97;5112984;27;20039;-84
2022/09/02 03:22:44;;;;;;;24.83;13.95;;;;;;;20.49;100.00;97193.00;5112232;27;20030;-84
2022/09/02 03:25:11;;;;;;;29.63;15.15;;;;;;;20.49;100.00;97214.75;5111429;28;20422;-86
2022/09/02 03:27:38;;;;;;;36.58;20.98;;;;;;;20.47;100.00;97224.94;5111663;27;20410;-85
2022/09/02 03:30:07;;;;;;;34.22;17.60;;;;;;;20.50;100.00;97227.31;5131762;27;20027;-84
2022/09/02 03:32:33;;;;;;;26.20;16.13;;;;;;;20.45;100.00;97233.25;5113825;27;20035;-82
2022/09/02 03:35:00;;;;;;;35.60;17.90;;;;;;;20.41;100.00;97239.19;5130607;27;20038;-83
2022/09/02 03:37:26;;;;;;;3.00;2.03;;;;;;;20.36;100.00;97220.66;5130782;27;20023;-82
2022/09/02 03:39:51;;;;;;;1.92;1.73;;;;;;;20.36;100.00;97236.97;5103545;27;20035;-84
2022/09/02 03:42:17;;;;;;;1.92;1.80;;;;;;;20.38;100.00;97228.63;5114003;27;20027;-82
2022/09/02 03:44:43;;;;;;;3.08;1.88;;;;;;;20.26;100.00;97240.81;5099852;28;20076;-82
2022/09/02 03:47:08;;;;;;;1.75;1.52;;;;;;;20.20;100.00;97258.56;5104992;27;22257;-82
2022/09/02 03:49:35;;;;;;;5.57;1.42;;;;;;;20.20;100.00;97252.28;5095630;27;20031;-86
2022/09/02 03:52:00;;;;;;;2.22;1.83;;;;;;;20.20;100.00;97249.56;5106120;28;20032;-86
2022/09/02 03:54:26;;;;;;;2.05;1.45;;;;;;;20.17;100.00;97258.03;5112985;27;20070;-87
2022/09/02 03:56:52;;;;;;;0.52;0.52;;;;;;;20.22;100.00;97261.13;5122247;27;20031;-87
2022/09/02 03:59:18;;;;;;;4.85;1.77;;;;;;;20.15;100.00;97260.09;5107370;27;20046;-84
2022/09/02 04:01:44;;;;;;;3.38;2.08;;;;;;;20.13;100.00;97272.94;5103674;27;20401;-83
2022/09/02 04:04:10;;;;;;;5.40;1.77;;;;;;;19.99;100.00;97267.09;5116166;28;20030;-84
2022/09/02 04:06:36;;;;;;;2.50;1.75;;;;;;;20.00;100.00;97274.25;5104647;28;20443;-84
2022/09/02 04:09:03;;;;;;;1.48;1.23;;;;;;;19.99;100.00;97272.53;5101476;28;20474;-84
2022/09/02 04:11:29;;;;;;;6.57;2.25;;;;;;;19.88;100.00;97270.09;5105228;28;20035;-84
2022/09/02 04:13:55;;;;;;;1.83;1.70;;;;;;;19.89;100.00;97281.81;5123572;28;20023;-83
2022/09/02 04:16:27;;;;;;;6.97;2.58;;;;;;;19.86;100.00;97279.41;5097756;28;20031;-83
2022/09/02 04:18:55;;;;;;;5.07;2.00;;;;;;;19.85;100.00;97281.25;5094986;28;20047;-84
2022/09/02 04:21:21;;;;;;;6.60;2.97;;;;;;;19.86;100.00;97279.41;5117465;27;20427;-84
2022/09/02 04:23:46;;;;;;;5.13;1.88;;;;;;;19.91;100.00;97296.91;5105776;28;20084;-84
2022/09/02 04:26:15;;;;;;;1.65;1.55;;;;;;;19.97;100.00;97298.13;5102662;28;20035;-83
2022/09/02 04:28:41;;;;;;;1.73;1.15;;;;;;;19.94;100.00;97293.88;5100514;28;20023;-82
2022/09/02 04:31:09;;;;;;;3.17;1.70;;;;;;;20.07;100.00;97311.63;5101187;28;20060;-83
2022/09/02 04:33:35;;;;;;;2.67;1.88;;;;;;;20.08;100.00;97305.19;5094016;28;20505;-80
2022/09/02 04:36:09;;;;;;;2.05;1.85;;;;;;;20.09;100.00;97299.56;5093054;28;20024;-80
2022/09/02 04:38:35;;;;;;;1.02;0.93;;;;;;;20.01;100.00;97285.94;5102230;28;20046;-80
2022/09/02 04:41:08;;;;;;;3.13;1.80;;;;;;;20.10;100.00;97286.84;5100351;28;20024;-81
2022/09/02 04:43:34;;;;;;;2.30;1.95;;;;;;;20.06;100.00;97283.59;5122589;28;20034;-79
2022/09/02 04:46:00;;;;;;;4.28;2.58;;;;;;;20.06;100.00;97285.50;5107946;28;20019;-80
2022/09/02 04:48:26;;;;;;;2.30;2.10;;;;;;;20.00;100.00;97285.09;5092246;28;20019;-81
2022/09/02 04:50:52;;;;;;;2.97;2.25;;;;;;;20.07;100.00;97295.31;5099336;28;20383;-79
2022/09/02 04:53:18;;;;;;;3.80;1.85;;;;;;;20.10;100.00;97297.72;5107092;27;20117;-79
2022/09/02 04:55:43;;;;;;;2.03;1.88;;;;;;;20.10;100.00;97304.00;5109904;27;20473;-82
2022/09/02 04:58:10;;;;;;;2.30;1.52;;;;;;;20.06;100.00;97304.50;5117610;27;20031;-85
2022/09/02 05:00:37;;;;;;;2.80;1.92;;;;;;;20.05;100.00;97303.66;5096080;28;20039;-82
2022/09/02 05:03:05;;;;;;;2.65;2.20;;;;;;;20.06;100.00;97297.19;5128026;27;20043;-82
2022/09/02 05:05:32;;;;;;;2.65;1.95;;;;;;;20.08;100.00;97302.47;5102353;27;20397;-82
2022/09/02 05:07:57;;;;;;;1.67;1.55;;;;;;;20.07;100.00;97298.03;5100063;28;20031;-82
2022/09/02 05:10:23;;;;;;;1.73;1.55;;;;;;;20.10;100.00;97314.00;5098533;27;20035;-80
2022/09/02 05:12:49;;;;;;;1.67;1.27;;;;;;;20.09;100.00;97301.47;5105622;27;20466;-82
2022/09/02 05:15:15;;;;;;;1.58;1.33;;;;;;;20.11;100.00;97305.72;5112353;27;20409;-81
2022/09/02 05:17:41;;;;;;;3.95;1.27;;;;;;;20.15;100.00;97298.94;5106142;28;20130;-81
2022/09/02 05:20:08;;;;;;;2.15;1.67;;;;;;;20.18;100.00;97306.75;5108883;27;20023;-82
2022/09/02 05:22:35;;;;;;;1.65;1.40;;;;;;;20.24;100.00;97313.44;5127166;27;20106;-82
2022/09/02 05:25:00;;;;;;;1.65;1.08;;;;;;;20.30;100.00;97323.69;5127525;27;20110;-81
2022/09/02 05:27:28;;;;;;;3.88;1.45;;;;;;;20.32;100.00;97317.09;5093364;28;20123;-82
2022/09/02 05:29:55;;;;;;;5.63;2.20;;;;;;;20.40;100.00;97325.28;5105915;28;20494;-81
2022/09/02 05:32:22;;;;;;;6.80;2.72;;;;;;;20.42;100.00;97322.41;5111874;27;20454;-80
2022/09/02 05:34:48;;;;;;;19.45;3.22;;;;;;;20.39;100.00;97323.59;5120036;27;20094;-82
2022/09/02 05:37:14;;;;;;;1.60;1.38;;;;;;;20.40;100.00;97324.41;5113651;27;20015;-81
2022/09/02 05:39:40;;;;;;;5.00;1.40;;;;;;;20.49;100.00;97331.59;5107489;27;20063;-80
2022/09/02 05:42:06;;;;;;;1.23;1.13;;;;;;;20.41;100.00;97326.13;5132158;27;20031;-80
2022/09/02 05:44:31;;;;;;;1.38;1.27;;;;;;;20.40;100.00;97329.84;5113842;27;20096;-80
2022/09/02 05:46:57;;;;;;;4.13;0.82;;;;;;;20.51;100.00;97318.72;5104161;27;20106;-81
2022/09/02 05:49:22;;;;;;;1.15;1.02;;;;;;;20.55;100.00;97330.94;5108845;27;20414;-82
2022/09/02 05:51:51;;;;;;;2.00;1.30;;;;;;;20.64;100.00;97326.44;5115579;27;20023;-80
2022/09/02 05:54:29;;;;;;;1.95;1.63;;;;;;;20.52;100.00;97331.28;5127287;27;20019;-81
2022/09/02 05:56:57;;;;;;;1.33;1.15;;;;;;;20.51;100.00;97326.88;5130957;27;20023;-81
2022/09/02 05:59:25;;;;;;;1.23;1.13;;;;;;;20.54;100.00;97332.84;5131836;27;20031;-81
2022/09/02 06:01:52;;;;;;;2.63;1.08;;;;;;;20.53;100.00;97324.81;5128996;27;20035;-80
2022/09/02 06:04:17;;;;;;;2.72;1.08;;;;;;;20.49;100.00;97323.44;5126238;27;20051;-81
2022/09/02 06:06:43;;;;;;;2.97;1.00;;;;;;;20.53;100.00;97336.56;5125427;27;20043;-81
2022/09/02 06:09:11;;;;;;;29.92;1.40;;;;;;;20.47;100.00;97337.22;5133544;27;20027;-82
2022/09/02 06:11:39;;;;;;;1.33;1.23;;;;;;;20.51;100.00;97335.03;5124266;27;20595;-80
2022/09/02 06:14:06;;;;;;;1.83;1.55;;;;;;;20.52;100.00;97340.28;5118289;28;20019;-81
2022/09/02 06:16:33;;;;;;;1.40;1.13;;;;;;;20.45;100.00;97331.09;5121551;27;20027;-81
2022/09/02 06:18:59;;;;;;;2.05;1.30;;;;;;;20.40;100.00;97336.13;5104915;27;20038;-81
2022/09/02 06:21:24;;;;;;;1.70;0.93;;;;;;;20.44;100.00;97334.81;5113112;27;20028;-81
2022/09/02 06:23:50;;;;;;;1.30;1.08;;;;;;;20.52;100.00;97340.28;5107137;27;20431;-78
2022/09/02 06:26:16;;;;;;;2.50;1.60;;;;;;;20.59;100.00;97337.78;5121726;27;20035;-80
2022/09/02 06:28:42;;;;;;;4.00;1.15;;;;;;;20.53;100.00;97336.56;5108735;27;20038;-80
2022/09/02 06:31:15;;;;;;;1.02;0.90;;;;;;;20.39;100.00;97339.88;5097753;27;20182;-80
2022/09/02 06:33:42;;;;;;;0.65;0.63;;;;;;;20.32;100.00;97327.09;5094043;28;20070;-79
2022/09/02 06:36:10;;;;;;;1.38;0.95;;;;;;;20.38;100.00;97340.03;5091390;28;20027;-80
2022/09/02 06:38:41;;;;;;;1.27;0.90;;;;;;;20.34;100.00;97344.94;5109554;27;20023;-80
2022/09/02 06:41:07;;;;;;;1.33;1.00;;;;;;;20.40;100.00;97346.16;5099724;28;20031;-79
2022/09/02 06:43:32;;;;;;;1.65;1.35;;;;;;;20.36;100.00;97350.22;5108375;28;20043;-78
2022/09/02 06:45:58;;;;;;;1.98;1.50;;;;;;;20.39;100.00;97349.91;5110719;27;20540;-79
2022/09/02 06:48:24;;;;;;;0.68;0.68;;;;;;;20.34;100.00;97357.66;5111686;27;20474;-78
2022/09/02 06:50:49;;;;;;;2.45;1.40;;;;;;;20.35;100.00;97360.22;5111745;27;20481;-80
2022/09/02 06:53:16;;;;;;;2.35;1.00;;;;;;;20.27;100.00;97356.63;5097175;28;20119;-79
2022/09/02 06:55:43;;;;;;;0.98;0.93;;;;;;;20.31;100.00;97355.25;5116967;27;20035;-80
2022/09/02 06:58:09;;;;;;;1.17;1.08;;;;;;;20.30;100.00;97362.56;5102313;28;20031;-80
2022/09/02 07:00:35;;;;;;;1.75;1.48;;;;;;;20.32;100.00;97370.56;5102277;28;20043;-79
2022/09/02 07:05:46;;;;;;;1.70;1.20;;;;;;;20.47;100.00;97371.69;5116818;27;20046;-79
2022/09/02 07:08:11;;;;;;;1.60;1.20;;;;;;;20.64;100.00;97370.75;5095054;28;20027;-79
2022/09/02 07:10:41;;;;;;;1.08;0.90;;;;;;;20.74;100.00;97370.63;5095282;28;20023;-79
2022/09/02 07:13:07;;;;;;;1.63;0.60;;;;;;;20.78;100.00;97369.28;5108293;27;20027;-79
2022/09/02 07:15:33;;;;;;;0.93;0.90;;;;;;;20.77;100.00;97365.72;5111217;27;20123;-79
2022/09/02 07:17:59;;;;;;;5.35;1.52;;;;;;;20.83;100.00;97348.75;5109583;27;20044;-79
2022/09/02 07:20:25;;;;;;;0.93;0.40;;;;;;;21.00;100.00;97355.13;5120296;27;20031;-80
2022/09/02 07:22:51;;;;;;;1.25;1.00;;;;;;;21.13;100.00;97360.13;5093446;27;20046;-80
2022/09/02 07:25:17;;;;;;;1.33;1.23;;;;;;;21.30;100.00;97362.72;5111051;27;20033;-80
2022/09/02 07:27:44;;;;;;;0.43;0.43;;;;;;;21.38;100.00;97353.75;5103792;28;20062;-80
2022/09/02 07:30:11;;;;;;;2.55;1.35;;;;;;;21.39;100.00;97352.72;5090176;28;20463;-80
2022/09/02 07:32:37;;;;;;;0.77;0.77;;;;;;;21.46;100.00;97346.44;5093138;28;20034;-80
2022/09/02 07:35:05;;;;;;;0.50;0.50;;;;;;;21.53;100.00;97346.63;5105712;27;20105;-80
2022/09/02 07:37:31;;;;;;;0.63;0.57;;;;;;;21.61;100.00;97331.16;5102005;28;20027;-80
2022/09/02 07:39:57;;;;;;;1.15;1.05;;;;;;;21.64;100.00;97338.13;5125677;27;20102;-80
2022/09/02 07:42:23;;;;;;;4.63;1.10;;;;;;;21.56;100.00;97336.22;5106915;27;20470;-80
2022/09/02 07:44:49;;;;;;;0.73;0.43;;;;;;;21.69;100.00;97333.00;5113579;27;20054;-80
2022/09/02 07:47:15;;;;;;;0.40;0.40;;;;;;;21.74;100.00;97311.59;5098545;28;20461;-80
2022/09/02 07:49:40;;;;;;;1.70;0.88;;;;;;;21.59;100.00;97307.84;5124876;27;20019;-80
2022/09/02 07:52:06;;;;;;;0.40;0.40;;;;;;;21.68;100.00;97306.81;5113858;27;20027;-80
2022/09/02 07:54:32;;;;;;;0.57;0.57;;;;;;;21.69;100.00;97311.22;5126191;27;20398;-80
2022/09/02 07:56:57;;;;;;;1.52;0.28;;;;;;;21.56;100.00;97319.88;5109478;27;20331;-80
2022/09/02 07:59:23;;;;;;;0.50;0.50;;;;;;;21.54;100.00;97311.06;5103057;28;20027;-80
2022/09/02 08:01:50;;;;;;;0.43;0.30;;;;;;;21.31;100.00;97307.28;5106788;28;20084;-79
2022/09/02 08:04:17;;;;;;;0.95;0.45;;;;;;;21.31;100.00;97317.31;5096063;28;20110;-79
2022/09/02 08:06:43;;;;;;;0.40;0.40;;;;;;;21.43;100.00;97319.56;5107645;28;20030;-80
2022/09/02 08:09:10;;;;;;;1.25;0.80;;;;;;;21.40;100.00;97329.94;5092958;28;20521;-80
2022/09/02 08:11:43;;;;;;;0.40;0.40;;;;;;;21.46;100.00;97329.25;5130016;27;20030;-80
2022/09/02 08:14:11;;;;;;;0.50;0.50;;;;;;;21.77;100.00;97333.03;5102761;28;20088;-80
2022/09/02 08:16:37;;;;;;;0.98;0.45;;;;;;;21.80;100.00;97321.78;5092895;28;20475;-80
2022/09/02 08:19:06;;;;;;;1.38;1.10;;;;;;;21.65;100.00;97328.09;5127782;28;20031;-79
2022/09/02 08:21:31;;;;;;;2.80;1.13;;;;;;;21.68;100.00;97330.47;5099732;28;20020;-80
2022/09/02 08:23:57;;;;;;;0.93;0.60;;;;;;;21.49;100.00;97321.59;5093361;28;20473;-79
2022/09/02 08:26:24;;;;;;;1.00;0.17;;;;;;;21.42;100.00;97322.44;5116429;27;20497;-79
2022/09/02 08:28:49;;;;;;;0.32;0.22;;;;;;;21.33;100.00;97331.59;5122552;27;20361;-80
2022/09/02 08:31:15;;;;;;;0.30;0.30;;;;;;;21.33;100.00;97337.03;5116481;27;20031;-81
2022/09/02 08:33:41;;;;;;;0.60;0.60;;;;;;;21.34;100.00;97338.75;5114170;27;20027;-80
2022/09/02 08:36:10;;;;;;;0.68;0.50;;;;;;;21.31;100.00;97330.94;5103807;27;20035;-79
2022/09/02 08:38:36;;;;;;;1.63;0.77;;;;;;;21.32;100.00;97332.66;5106358;28;20546;-79
2022/09/02 08:41:11;;;;;;;0.47;0.47;;;;;;;21.36;100.00;97323.09;5105310;28;20059;-80
2022/09/02 08:43:42;;;;;;;0.40;0.40;;;;;;;21.31;100.00;97318.19;5115943;27;20470;-81
2022/09/02 08:46:10;;;;;;;0.65;0.47;;;;;;;21.38;100.00;97330.06;5134335;27;20034;-80
2022/09/02 08:48:54;;;;;;;0.35;0.30;;;;;;;21.51;100.00;97330.44;5106329;28;20030;-80
2022/09/02 08:51:40;;;;;;;0.80;0.47;;;;;;;21.59;100.00;97326.91;5113284;28;20027;-80
2022/09/02 08:54:22;;;;;;;1.27;0.73;;;;;;;21.42;100.00;97320.56;5124807;27;20027;-80
2022/09/02 08:56:50;;;;;;;1.02;0.57;;;;;;;21.28;100.00;97321.25;5116711;27;20027;-79
2022/09/02 08:59:19;;;;;;;0.60;0.60;;;;;;;21.19;100.00;97318.66;5117104;27;20019;-79
2022/09/02 09:01:50;;;;;;;1.00;0.75;;;;;;;21.18;100.00;97331.41;5113890;27;20372;-79
2022/09/02 09:04:31;;;;;;;1.90;0.90;;;;;;;21.25;100.00;97337.91;5106419;27;20027;-79
2022/09/02 09:07:03;;;;;;;0.80;0.80;;;;;;;21.34;100.00;97341.47;5113084;27;20030;-79
2022/09/02 09:10:03;;;;;;;1.17;1.08;;;;;;;21.36;100.00;97340.28;5133710;27;20022;-80
2022/09/02 09:12:49;;;;;;;1.23;0.75;;;;;;;21.51;100.00;97325.00;5104868;28;20026;-80
2022/09/02 09:15:51;;;;;;;0.50;0.50;;;;;;;21.40;100.00;97313.59;5118029;27;20032;-80
2022/09/02 09:18:20;;;;;;;1.55;1.13;;;;;;;21.60;100.00;97323.13;5106377;27;20442;-80
2022/09/02 09:20:45;;;;;;;2.38;0.82;;;;;;;21.61;100.00;97324.84;5114471;27;20126;-80
2022/09/02 09:23:33;;;;;;;0.77;0.77;;;;;;;21.56;100.00;97309.00;5107924;27;20194;-79
2022/09/02 09:26:08;;;;;;;0.93;0.77;;;;;;;21.74;100.00;97297.97;5103862;27;20358;-79
2022/09/02 09:28:39;;;;;;;1.70;0.80;;;;;;;22.00;100.00;97295.94;5116398;27;20019;-79
2022/09/02 09:31:09;;;;;;;0.28;0.28;;;;;;;21.96;100.00;97297.31;5116497;27;20054;-79
2022/09/02 09:33:34;;;;;;;2.13;1.33;;;;;;;22.16;100.00;97295.06;5115422;27;20024;-79
2022/09/02 09:36:02;;;;;;;0.68;0.68;;;;;;;22.62;100.00;97283.34;5110301;27;20182;-78
2022/09/02 09:38:34;;;;;;;2.35;1.40;;;;;;;23.33;100.00;97298.69;5108377;28;20039;-79
2022/09/02 09:41:21;;;;;;;1.27;1.10;;;;;;;23.64;100.00;97295.94;5090486;28;20044;-79
2022/09/02 09:43:47;;;;;;;2.25;0.38;;;;;;;23.76;100.00;97286.28;5095501;28;20034;-78
2022/09/02 09:46:33;;;;;;;2.03;1.13;;;;;;;23.65;100.00;97279.38;5114882;27;20027;-79
2022/09/02 09:48:58;;;;;;;0.95;0.47;;;;;;;23.56;100.00;97258.59;5103866;27;20110;-79
2022/09/02 09:51:24;;;;;;;0.57;0.57;;;;;;;23.21;100.00;97267.38;5115704;27;20603;-78
2022/09/02 09:53:51;;;;;;;0.35;0.32;;;;;;;23.00;100.00;97258.97;5132487;27;20027;-78
2022/09/02 09:56:17;;;;;;;40.25;1.92;;;;;;;23.29;100.00;97263.75;5115617;27;20422;-78
2022/09/02 09:58:44;;;;;;;1.23;0.55;;;;;;;23.33;100.00;97255.00;5124220;27;20176;-80
2022/09/02 10:01:25;;;;;;;0.57;0.43;;;;;;;23.64;100.00;97263.16;5115482;27;20398;-76
2022/09/02 10:03:54;;;;;;;0.60;0.57;;;;;;;23.40;100.00;97266.94;5122412;27;20027;-78
2022/09/02 10:06:24;;;;;;;0.90;0.85;;;;;;;23.58;100.00;97266.63;5114992;27;20027;-78
2022/09/02 10:08:55;;;;;;;1.23;0.82;;;;;;;23.62;100.00;97265.25;5115319;27;20030;-79
2022/09/02 10:11:28;;;;;;;0.63;0.63;;;;;;;23.64;100.00;97257.69;5109992;27;20019;-79
2022/09/02 10:14:02;;;;;;;0.57;0.45;;;;;;;23.66;100.00;97247.44;5132542;27;20031;-79
2022/09/02 10:16:42;;;;;;;1.38;1.02;;;;;;;23.47;100.00;97243.31;5108838;28;20015;-79
2022/09/02 10:19:17;;;;;;;1.17;0.77;;;;;;;23.61;100.00;97253.47;5121922;27;20615;-81
2022/09/02 10:22:08;;;;;;;0.73;0.35;;;;;;;23.64;100.00;97250.38;5129323;27;20035;-79
2022/09/02 10:24:51;;;;;;;0.40;0.40;;;;;;;24.05;100.00;97248.09;5125068;27;20432;-79
2022/09/02 10:27:36;;;;;;;0.47;0.43;;;;;;;24.22;100.00;97249.66;5115440;27;20558;-80
2022/09/02 10:30:17;;;;;;;0.65;0.63;;;;;;;24.55;100.00;97244.66;5100205;27;20050;-80
2022/09/02 10:33:10;;;;;;;0.30;0.30;;;;;;;24.30;100.00;97237.78;5113030;27;20197;-79
2022/09/02 10:35:48;;;;;;;1.08;0.40;;;;;;;24.19;100.00;97235.50;5090576;28;20456;-79
2022/09/02 10:38:33;;;;;;;0.68;0.40;;;;;;;24.53;100.00;97240.41;5097513;27;20073;-80
2022/09/02 10:41:17;;;;;;;0.68;0.68;;;;;;;24.61;100.00;97246.63;5094490;28;20034;-79
2022/09/02 10:43:52;;;;;;;1.90;0.93;;;;;;;24.50;100.00;97247.13;5111743;28;20460;-79
2022/09/02 10:46:21;;;;;;;0.50;0.50;;;;;;;24.45;100.00;97235.91;5119089;27;20019;-86
2022/09/02 10:49:00;;;;;;;0.63;0.55;;;;;;;24.30;100.00;97242.41;5104541;28;20023;-86
2022/09/02 10:51:49;;;;;;;0.65;0.65;;;;;;;24.34;100.00;97239.09;5116407;27;20481;-86
2022/09/02 10:54:14;;;;;;;0.47;0.40;;;;;;;24.55;100.00;97238.34;5112532;28;20023;-81
2022/09/02 10:57:04;;;;;;;0.57;0.55;;;;;;;24.46;100.00;97229.38;5125464;27;20041;-77
2022/09/02 10:59:40;;;;;;;0.60;0.60;;;;;;;24.42;100.00;97229.97;5120362;27;20482;-76
2022/09/02 11:02:24;;;;;;;0.65;0.65;;;;;;;24.78;100.00;97234.44;5107761;27;20039;-76
2022/09/02 11:04:55;;;;;;;0.60;0.60;;;;;;;24.64;100.00;97226.28;5109086;28;20059;-76
2022/09/02 11:07:26;;;;;;;0.68;0.68;;;;;;;24.88;100.00;97227.88;5121783;27;20027;-77
2022/09/02 11:09:55;;;;;;;0.60;0.60;;;;;;;25.10;100.00;97211.25;5097353;28;20092;-77
2022/09/02 11:12:28;;;;;;;1.70;0.95;;;;;;;25.61;100.00;97227.63;5099598;28;20483;-77
2022/09/02 11:15:35;;;;;;;0.70;0.43;;;;;;;25.80;100.00;97218.72;5119612;27;20023;-76
2022/09/02 11:18:12;;;;;;;0.30;0.30;;;;;;;25.78;100.00;97221.66;5106407;27;20058;-79
2022/09/02 11:20:46;;;;;;;2.20;0.63;;;;;;;25.52;100.00;97215.09;5114286;27;20045;-80
2022/09/02 11:23:36;;;;;;;0.45;0.45;;;;;;;25.27;100.00;97207.25;5131613;27;20023;-81
2022/09/02 11:26:18;;;;;;;0.60;0.60;;;;;;;25.44;100.00;97212.47;5093206;27;20019;-82
2022/09/02 11:29:04;;;;;;;1.42;1.30;;;;;;;25.47;100.00;97212.09;5091428;28;20347;-81
2022/09/02 11:31:43;;;;;;;1.55;0.90;;;;;;;25.83;99.97;97212.84;5114593;27;20414;-82